Terminal Aerodrome Forecast
Issued by NWS

Home | Current Version | Previous Version | Graphics & Text | Print | Product List | Glossary On
Versions: 1 2 3 4 5 6 7 8 9 10 11 12 13 14 15 16 17 18 19 20 21 22 23 24 25 26
044
FTUS43 KABR 232049 AAB
TAFATY
TAF AMD
KATY 232049Z 2321/2418 36018G27KT 1 1/2SM SHRA BR FEW015 BKN025
      OVC035
     FM232115 36016G24KT P6SM VCSH SCT015 BKN025 OVC040
     FM232200 36016G24KT P6SM VCSH SCT015 BKN025 OVC040
      TEMPO 2322/2323 -SHRA SCT025 BKN035 OVC060
     FM232300 35015G23KT P6SM VCSH OVC020
     FM240100 36011KT P6SM OVC035
     FM241000 36006KT P6SM BKN030
     FM241400 06006KT P6SM BKN020
     FM241600 09006KT P6SM BKN035=

USA.gov is the U.S. government's official web portal to all federal, state and local government web resources and services.